Time;durP1;ratioP1;P1;durP2;ratioP2;P2;SDS_P1;SDS_P2;PMS_P1;PMS_P2;Temp;Humidity;BMP_temperature;BMP_pressure;BME280_temperature;BME280_humidity;BME280_pressure;Samples;Min_cycle;Max_cycle;Signal;HPM_P1;HPM_P2
2023/10/25 00:01:18;;;;;;;1.33;0.70;;;8.40;99.90;;;;;;5015486;28;20084;-66
2023/10/25 00:03:44;;;;;;;1.08;0.63;;;8.40;99.90;;;;;;5015006;28;20080;-66
2023/10/25 00:06:09;;;;;;;2.83;1.08;;;8.40;99.90;;;;;;5023859;28;20053;-65
2023/10/25 00:08:35;;;;;;;2.30;0.55;;;8.30;99.90;;;;;;5018068;28;20045;-65
2023/10/25 00:11:05;;;;;;;1.15;0.70;;;8.30;99.90;;;;;;5008162;28;20414;-65
2023/10/25 00:13:32;;;;;;;1.90;0.70;;;8.30;99.90;;;;;;4999497;28;20046;-65
2023/10/25 00:15:58;;;;;;;0.40;0.40;;;8.30;99.90;;;;;;5018042;28;20071;-66
2023/10/25 00:18:26;;;;;;;0.43;0.32;;;8.20;99.90;;;;;;4992810;28;20065;-66
2023/10/25 00:20:52;;;;;;;1.33;0.77;;;8.20;99.90;;;;;;5011795;28;20044;-65
2023/10/25 00:23:19;;;;;;;1.17;0.47;;;8.20;99.90;;;;;;4988312;28;20149;-66
2023/10/25 00:25:47;;;;;;;3.10;0.40;;;8.10;99.90;;;;;;5019361;28;20141;-65
2023/10/25 00:28:13;;;;;;;7.45;0.60;;;8.10;99.90;;;;;;5003265;28;20041;-65
2023/10/25 00:30:39;;;;;;;1.02;0.50;;;8.10;99.90;;;;;;5009351;28;20045;-65
2023/10/25 00:33:04;;;;;;;0.52;0.35;;;8.10;99.90;;;;;;5014545;28;20030;-64
2023/10/25 00:35:30;;;;;;;0.70;0.50;;;8.10;99.90;;;;;;5019583;28;20077;-65
2023/10/25 00:37:56;;;;;;;1.25;0.60;;;8.10;99.90;;;;;;4981268;28;20041;-65
2023/10/25 00:40:21;;;;;;;2.72;0.30;;;8.00;99.90;;;;;;5023089;28;20071;-65
2023/10/25 00:42:47;;;;;;;2.25;1.48;;;8.00;99.90;;;;;;5020108;28;20837;-65
2023/10/25 00:45:13;;;;;;;0.90;0.63;;;7.90;99.90;;;;;;5020681;28;20542;-64
2023/10/25 00:47:40;;;;;;;0.57;0.40;;;7.90;99.90;;;;;;5015690;28;20269;-65
2023/10/25 00:50:07;;;;;;;1.23;0.60;;;7.90;99.90;;;;;;5021541;28;20421;-65
2023/10/25 00:52:33;;;;;;;1.30;0.55;;;7.90;99.90;;;;;;5025770;28;20045;-65
2023/10/25 00:54:59;;;;;;;4.07;0.93;;;7.80;99.90;;;;;;5020263;28;20077;-65
2023/10/25 00:57:25;;;;;;;1.05;0.70;;;7.90;99.90;;;;;;5021020;28;20065;-65
2023/10/25 00:59:51;;;;;;;4.88;0.50;;;7.90;99.90;;;;;;5014303;28;20045;-65
2023/10/25 01:02:18;;;;;;;1.08;0.50;;;7.90;99.90;;;;;;5016204;28;20472;-65
2023/10/25 01:04:43;;;;;;;4.53;0.70;;;7.90;99.90;;;;;;5019145;28;20042;-65
2023/10/25 01:07:09;;;;;;;1.92;0.50;;;7.80;99.90;;;;;;5016663;28;20056;-65
2023/10/25 01:09:35;;;;;;;1.00;0.77;;;7.80;99.90;;;;;;5019989;28;20405;-65
2023/10/25 01:12:01;;;;;;;0.50;0.40;;;7.80;99.90;;;;;;5023505;28;20087;-66
2023/10/25 01:14:28;;;;;;;2.40;0.40;;;7.80;99.90;;;;;;5001001;28;20375;-65
2023/10/25 01:16:53;;;;;;;0.82;0.30;;;7.80;99.90;;;;;;5014752;28;20046;-64
2023/10/25 01:19:19;;;;;;;0.63;0.45;;;7.80;99.90;;;;;;5008962;28;20556;-65
2023/10/25 01:21:45;;;;;;;2.92;0.65;;;7.70;99.90;;;;;;5015408;28;20048;-65
2023/10/25 01:24:11;;;;;;;1.52;0.50;;;7.80;99.90;;;;;;5017324;28;20468;-66
2023/10/25 01:26:37;;;;;;;1.02;0.80;;;7.70;99.90;;;;;;4994503;28;20403;-66
2023/10/25 01:29:02;;;;;;;0.70;0.47;;;7.60;99.90;;;;;;5014498;28;20041;-66
2023/10/25 01:31:28;;;;;;;3.20;0.73;;;7.60;99.90;;;;;;5021106;28;20045;-65
2023/10/25 01:33:54;;;;;;;0.85;0.40;;;7.60;99.90;;;;;;5015629;28;20494;-66
2023/10/25 01:36:19;;;;;;;1.35;0.47;;;7.70;99.90;;;;;;5025869;28;20100;-66
2023/10/25 01:38:45;;;;;;;2.13;0.82;;;7.60;99.90;;;;;;5023529;28;20121;-65
2023/10/25 01:41:15;;;;;;;0.90;0.40;;;7.70;99.90;;;;;;5004269;28;20042;-65
2023/10/25 01:43:42;;;;;;;0.50;0.40;;;7.70;99.90;;;;;;5018151;28;20045;-65
2023/10/25 01:46:08;;;;;;;8.07;0.68;;;7.70;99.90;;;;;;5021383;28;20264;-65
2023/10/25 01:48:35;;;;;;;2.80;1.13;;;7.70;99.90;;;;;;5012062;28;20183;-65
2023/10/25 01:51:01;;;;;;;0.85;0.50;;;7.70;99.90;;;;;;5014642;28;20053;-65
2023/10/25 01:53:27;;;;;;;0.80;0.47;;;7.70;99.90;;;;;;5020780;28;20083;-66
2023/10/25 01:55:53;;;;;;;1.27;0.88;;;7.70;99.90;;;;;;4994480;28;20426;-66
2023/10/25 01:58:19;;;;;;;0.95;0.52;;;7.70;99.90;;;;;;5011472;28;20045;-66
2023/10/25 02:00:44;;;;;;;1.90;0.90;;;7.70;99.90;;;;;;5000275;28;20117;-66
2023/10/25 02:03:10;;;;;;;0.80;0.50;;;7.60;99.90;;;;;;5020011;28;20465;-65
2023/10/25 02:05:36;;;;;;;0.65;0.38;;;7.70;99.90;;;;;;5010899;28;20104;-65
2023/10/25 02:08:01;;;;;;;1.63;0.50;;;7.70;99.90;;;;;;5007248;28;20136;-65
2023/10/25 02:10:27;;;;;;;1.15;0.45;;;7.70;99.90;;;;;;4999981;28;20067;-65
2023/10/25 02:12:53;;;;;;;3.92;1.38;;;7.70;99.90;;;;;;4999691;28;20040;-66
2023/10/25 02:15:19;;;;;;;3.13;0.55;;;7.70;99.90;;;;;;5009863;28;20470;-65
2023/10/25 02:17:44;;;;;;;1.48;0.98;;;7.70;99.90;;;;;;5014904;28;20159;-65
2023/10/25 02:20:10;;;;;;;2.28;0.95;;;7.70;99.90;;;;;;5013982;28;20074;-65
2023/10/25 02:22:36;;;;;;;0.93;0.70;;;7.70;99.90;;;;;;4996560;28;20128;-66
2023/10/25 02:25:02;;;;;;;2.30;0.70;;;7.70;99.90;;;;;;5009534;28;20858;-65
2023/10/25 02:27:28;;;;;;;1.88;1.40;;;7.70;99.90;;;;;;4998633;28;20041;-66
2023/10/25 02:29:53;;;;;;;1.10;0.77;;;7.70;99.90;;;;;;5016823;28;20073;-66
2023/10/25 02:32:19;;;;;;;1.05;0.70;;;7.70;99.90;;;;;;5016555;28;20437;-65
2023/10/25 02:34:46;;;;;;;1.15;0.77;;;7.60;99.90;;;;;;5018095;28;20045;-66
2023/10/25 02:37:12;;;;;;;0.88;0.60;;;7.60;99.90;;;;;;5024633;28;20133;-65
2023/10/25 02:39:38;;;;;;;2.65;0.98;;;7.60;99.90;;;;;;5023672;28;20099;-65
2023/10/25 02:42:04;;;;;;;1.70;0.82;;;7.60;99.90;;;;;;5000300;28;20379;-64
2023/10/25 02:44:30;;;;;;;1.55;0.68;;;7.60;99.90;;;;;;5015951;28;20099;-65
2023/10/25 02:46:56;;;;;;;2.22;0.90;;;7.60;99.90;;;;;;5023131;28;20038;-65
2023/10/25 02:49:22;;;;;;;1.10;0.82;;;7.60;99.90;;;;;;5002268;28;20038;-64
2023/10/25 02:51:48;;;;;;;1.52;1.00;;;7.70;99.90;;;;;;5003194;28;20552;-65
2023/10/25 02:54:14;;;;;;;2.60;1.58;;;7.60;99.90;;;;;;5014187;28;20037;-65
2023/10/25 02:56:40;;;;;;;1.20;0.80;;;7.60;99.90;;;;;;5022691;28;20042;-66
2023/10/25 02:59:06;;;;;;;1.40;0.80;;;7.70;99.90;;;;;;5004062;28;20038;-66
2023/10/25 03:01:31;;;;;;;1.40;1.08;;;7.60;99.90;;;;;;5016283;28;20125;-66
2023/10/25 03:03:57;;;;;;;1.58;1.10;;;7.70;99.90;;;;;;4994528;28;20034;-65
2023/10/25 03:06:23;;;;;;;2.72;0.90;;;7.70;99.90;;;;;;5022545;28;20056;-66
2023/10/25 03:08:49;;;;;;;0.75;0.43;;;7.70;99.90;;;;;;5020561;28;20046;-65
2023/10/25 03:11:14;;;;;;;0.75;0.57;;;7.60;99.90;;;;;;5018939;28;20057;-65
2023/10/25 03:13:40;;;;;;;0.90;0.75;;;7.60;99.90;;;;;;5012757;28;20502;-65
2023/10/25 03:16:06;;;;;;;2.83;1.00;;;7.60;99.90;;;;;;5014107;28;20046;-65
2023/10/25 03:18:33;;;;;;;2.42;1.08;;;7.60;99.90;;;;;;4987799;28;20077;-65
2023/10/25 03:21:03;;;;;;;1.23;0.82;;;7.60;99.90;;;;;;5017299;28;20037;-64
2023/10/25 03:23:32;;;;;;;1.77;0.70;;;7.60;99.90;;;;;;5016893;28;20068;-65
2023/10/25 03:26:08;;;;;;;1.17;0.70;;;7.50;99.90;;;;;;5024924;28;20133;-65
2023/10/25 03:28:34;;;;;;;1.45;0.85;;;7.60;99.90;;;;;;5018813;28;20064;-65
2023/10/25 03:31:07;;;;;;;1.65;0.60;;;7.60;99.90;;;;;;5025340;28;20038;-66
2023/10/25 03:33:33;;;;;;;1.05;0.50;;;7.60;99.90;;;;;;5016684;28;20091;-65
2023/10/25 03:36:00;;;;;;;2.55;0.95;;;7.60;99.90;;;;;;5023108;28;20034;-65
2023/10/25 03:38:26;;;;;;;2.55;0.60;;;7.60;99.90;;;;;;5001006;28;20428;-65
2023/10/25 03:41:05;;;;;;;1.55;0.63;;;7.50;99.90;;;;;;5019708;28;20049;-66
2023/10/25 03:43:32;;;;;;;1.88;1.00;;;7.50;99.90;;;;;;5027078;28;20073;-66
2023/10/25 03:46:06;;;;;;;0.77;0.70;;;7.50;99.90;;;;;;5002059;28;20041;-65
2023/10/25 03:48:33;;;;;;;2.80;0.70;;;7.50;99.90;;;;;;5025296;28;20369;-65
2023/10/25 03:50:59;;;;;;;0.63;0.40;;;7.40;99.90;;;;;;5018813;28;20049;-65
2023/10/25 03:53:24;;;;;;;1.05;0.68;;;7.50;99.90;;;;;;4997131;28;20042;-66
2023/10/25 03:55:55;;;;;;;1.05;0.70;;;7.40;99.90;;;;;;5020191;28;20033;-66
2023/10/25 03:58:21;;;;;;;0.95;0.63;;;7.50;99.90;;;;;;5026240;28;20045;-66
2023/10/25 04:00:47;;;;;;;1.27;0.77;;;7.40;99.90;;;;;;5028498;28;20498;-66
2023/10/25 04:03:14;;;;;;;1.13;0.68;;;7.40;99.90;;;;;;5020332;28;20414;-65
2023/10/25 04:05:40;;;;;;;2.03;1.00;;;7.40;99.90;;;;;;5001830;28;20038;-66
2023/10/25 04:08:05;;;;;;;0.80;0.60;;;7.50;99.90;;;;;;4997123;28;20053;-65
2023/10/25 04:10:31;;;;;;;4.43;0.80;;;7.40;99.90;;;;;;5014476;28;20385;-66
2023/10/25 04:12:57;;;;;;;3.10;0.63;;;7.40;99.90;;;;;;5023727;28;20042;-65
2023/10/25 04:15:22;;;;;;;3.28;0.95;;;7.40;99.90;;;;;;5001544;28;20136;-66
2023/10/25 04:17:48;;;;;;;1.55;0.93;;;7.40;99.90;;;;;;5015599;28;20044;-65
2023/10/25 04:20:14;;;;;;;1.45;0.70;;;7.40;99.90;;;;;;5009247;28;20109;-65
2023/10/25 04:22:39;;;;;;;1.48;0.80;;;7.40;99.90;;;;;;4999115;28;20081;-66
2023/10/25 04:25:06;;;;;;;1.45;0.73;;;7.40;99.90;;;;;;5020035;28;20029;-65
2023/10/25 04:27:31;;;;;;;0.75;0.65;;;7.30;99.90;;;;;;5015936;28;20065;-65
2023/10/25 04:29:57;;;;;;;1.60;0.60;;;7.30;99.90;;;;;;5021350;28;20037;-66
2023/10/25 04:32:23;;;;;;;3.08;0.82;;;7.30;99.90;;;;;;5017391;28;20046;-67
2023/10/25 04:34:50;;;;;;;1.13;0.60;;;7.30;99.90;;;;;;5018451;28;20547;-66
2023/10/25 04:37:15;;;;;;;1.27;0.75;;;7.30;99.90;;;;;;5017522;28;20076;-66
2023/10/25 04:39:41;;;;;;;2.10;1.00;;;7.30;99.90;;;;;;5012650;28;20069;-66
2023/10/25 04:42:07;;;;;;;1.45;0.60;;;7.30;99.90;;;;;;5024218;28;20382;-64
2023/10/25 04:44:32;;;;;;;1.27;0.65;;;7.30;99.90;;;;;;5017411;28;20049;-66
2023/10/25 04:46:59;;;;;;;0.95;0.73;;;7.30;99.90;;;;;;5017893;28;20073;-67
2023/10/25 04:49:28;;;;;;;3.08;0.68;;;7.30;99.90;;;;;;5025187;28;20405;-66
2023/10/25 04:51:54;;;;;;;2.10;1.08;;;7.30;99.90;;;;;;5018088;28;20112;-66
2023/10/25 04:54:20;;;;;;;1.38;0.60;;;7.30;99.90;;;;;;4986889;28;20105;-65
2023/10/25 04:56:45;;;;;;;1.52;0.77;;;7.30;99.90;;;;;;5022950;28;20049;-66
2023/10/25 04:59:11;;;;;;;0.30;0.20;;;7.30;99.90;;;;;;5022513;28;20048;-66
2023/10/25 05:01:37;;;;;;;0.88;0.40;;;7.30;99.90;;;;;;5001991;28;20053;-66
2023/10/25 05:04:02;;;;;;;1.17;0.75;;;7.30;99.90;;;;;;5019782;28;20482;-66
2023/10/25 05:06:28;;;;;;;0.52;0.50;;;7.30;99.90;;;;;;5015448;28;20418;-66
2023/10/25 05:08:54;;;;;;;1.27;0.77;;;7.30;99.90;;;;;;5015333;28;20042;-66
2023/10/25 05:11:26;;;;;;;1.10;0.52;;;7.30;99.90;;;;;;5018095;28;20150;-66
2023/10/25 05:13:52;;;;;;;0.57;0.43;;;7.30;99.90;;;;;;5024498;28;20254;-66
2023/10/25 05:16:18;;;;;;;0.70;0.52;;;7.30;99.90;;;;;;5010070;28;20044;-67
2023/10/25 05:18:44;;;;;;;1.88;0.88;;;7.30;99.90;;;;;;4999883;28;20478;-66
2023/10/25 05:21:16;;;;;;;0.77;0.65;;;7.30;99.90;;;;;;5017699;28;20038;-67
2023/10/25 05:23:42;;;;;;;2.20;0.82;;;7.30;99.90;;;;;;5014949;28;20045;-66
2023/10/25 05:26:08;;;;;;;1.60;1.00;;;7.30;99.90;;;;;;5027788;28;20124;-67
2023/10/25 05:28:34;;;;;;;4.38;0.90;;;7.20;99.90;;;;;;5017027;28;20274;-66
2023/10/25 05:31:04;;;;;;;0.93;0.85;;;7.20;99.90;;;;;;5016834;28;20524;-66
2023/10/25 05:33:31;;;;;;;0.47;0.45;;;7.20;99.90;;;;;;5020212;28;20394;-67
2023/10/25 05:35:58;;;;;;;1.08;0.70;;;7.20;99.90;;;;;;5008705;28;20076;-66
2023/10/25 05:38:24;;;;;;;2.67;0.73;;;7.20;99.90;;;;;;5001176;28;20065;-67
2023/10/25 05:40:51;;;;;;;1.23;0.80;;;7.10;99.90;;;;;;5019008;28;20242;-67
2023/10/25 05:43:22;;;;;;;1.00;0.60;;;7.10;99.90;;;;;;5000318;28;20409;-67
2023/10/25 05:45:47;;;;;;;1.45;0.50;;;7.10;99.90;;;;;;4992545;28;20048;-66
2023/10/25 05:48:15;;;;;;;1.23;0.75;;;7.20;99.90;;;;;;5015842;28;20045;-66
2023/10/25 05:50:44;;;;;;;1.08;0.80;;;7.10;99.90;;;;;;5017679;28;20049;-66
2023/10/25 05:53:13;;;;;;;4.65;0.82;;;7.10;99.90;;;;;;5020421;28;20669;-66
2023/10/25 05:55:39;;;;;;;0.90;0.60;;;7.10;99.90;;;;;;4974440;28;20041;-67
2023/10/25 05:58:04;;;;;;;3.70;0.70;;;7.10;99.90;;;;;;5015131;28;20053;-66
2023/10/25 06:00:30;;;;;;;1.15;0.80;;;7.00;99.90;;;;;;4980722;28;20058;-66
2023/10/25 06:03:00;;;;;;;1.70;0.57;;;7.00;99.90;;;;;;5011119;28;20578;-66
2023/10/25 06:05:30;;;;;;;1.15;0.60;;;7.00;99.90;;;;;;5018620;28;20353;-66
2023/10/25 06:07:56;;;;;;;1.25;0.77;;;6.90;99.90;;;;;;5021170;28;20053;-67
2023/10/25 06:10:22;;;;;;;0.82;0.50;;;6.90;99.90;;;;;;5017510;28;20041;-66
2023/10/25 06:12:48;;;;;;;1.30;0.80;;;6.90;99.90;;;;;;5029396;28;20042;-66
2023/10/25 06:15:14;;;;;;;0.93;0.80;;;6.90;99.90;;;;;;5016123;28;20278;-66
2023/10/25 06:17:40;;;;;;;1.30;0.65;;;6.90;99.90;;;;;;5021126;28;20639;-66
2023/10/25 06:20:06;;;;;;;0.82;0.65;;;7.00;99.90;;;;;;5022089;28;20428;-66
2023/10/25 06:22:32;;;;;;;2.45;0.70;;;7.00;99.90;;;;;;5005401;28;20047;-67
2023/10/25 06:24:57;;;;;;;2.88;1.13;;;6.90;99.90;;;;;;5015878;28;20049;-66
2023/10/25 06:27:23;;;;;;;3.47;1.17;;;7.00;99.90;;;;;;5020875;28;20136;-66
2023/10/25 06:29:49;;;;;;;1.10;0.80;;;7.00;99.90;;;;;;5002445;28;20068;-66
2023/10/25 06:32:14;;;;;;;1.05;0.80;;;7.00;99.90;;;;;;5014037;28;20056;-66
2023/10/25 06:34:40;;;;;;;1.85;0.95;;;7.00;99.90;;;;;;5017776;28;20054;-66
2023/10/25 06:37:08;;;;;;;1.48;1.08;;;7.00;99.90;;;;;;5021415;28;20034;-66
2023/10/25 06:39:34;;;;;;;1.30;0.98;;;7.00;99.90;;;;;;5022498;28;20045;-66
2023/10/25 06:42:00;;;;;;;2.08;0.85;;;7.00;99.90;;;;;;5021108;28;20038;-66
2023/10/25 06:44:26;;;;;;;0.80;0.60;;;7.00;99.90;;;;;;5019656;28;20033;-66
2023/10/25 06:46:52;;;;;;;0.93;0.70;;;7.00;99.90;;;;;;5026350;28;20033;-66
2023/10/25 06:49:18;;;;;;;2.65;1.10;;;7.00;99.90;;;;;;5003282;28;20469;-66
2023/10/25 06:51:44;;;;;;;1.10;0.80;;;7.00;99.90;;;;;;5019611;28;20053;-66
2023/10/25 06:54:11;;;;;;;0.88;0.60;;;7.10;99.90;;;;;;5017618;28;20088;-66
2023/10/25 06:56:37;;;;;;;1.35;1.15;;;7.00;99.90;;;;;;4972771;28;20084;-66
2023/10/25 06:59:03;;;;;;;2.22;1.30;;;7.10;99.90;;;;;;4969287;28;20410;-66
2023/10/25 07:01:31;;;;;;;1.50;0.88;;;7.10;99.90;;;;;;5011166;28;20050;-66
2023/10/25 07:03:59;;;;;;;0.98;0.63;;;7.20;99.90;;;;;;5017654;28;20034;-65
2023/10/25 07:06:25;;;;;;;1.35;0.95;;;7.20;99.90;;;;;;5023339;28;20050;-66
2023/10/25 07:08:51;;;;;;;4.97;1.20;;;7.20;99.90;;;;;;5018866;28;20171;-67
2023/10/25 07:11:17;;;;;;;7.57;1.08;;;7.30;99.90;;;;;;5020391;28;20478;-66
2023/10/25 07:13:43;;;;;;;4.30;0.80;;;7.30;99.90;;;;;;5021675;28;20048;-66
2023/10/25 07:16:09;;;;;;;2.13;0.85;;;7.30;99.90;;;;;;5018987;28;20045;-66
2023/10/25 07:18:34;;;;;;;0.75;0.70;;;7.40;99.90;;;;;;5016948;28;20038;-66
2023/10/25 07:21:00;;;;;;;1.13;0.70;;;7.40;99.90;;;;;;5014804;28;20041;-66
2023/10/25 07:23:27;;;;;;;0.85;0.70;;;7.40;99.90;;;;;;5021858;28;20681;-66
2023/10/25 07:25:53;;;;;;;1.25;0.75;;;7.50;99.90;;;;;;4984161;28;20126;-66
2023/10/25 07:28:21;;;;;;;1.95;0.70;;;7.50;99.90;;;;;;5018368;28;20486;-67
2023/10/25 07:30:46;;;;;;;1.52;0.60;;;7.60;99.90;;;;;;5013362;28;20046;-67
2023/10/25 07:33:13;;;;;;;1.65;0.85;;;7.60;99.90;;;;;;5015229;28;20474;-65
2023/10/25 07:35:38;;;;;;;1.30;0.50;;;7.60;99.90;;;;;;5018983;28;20052;-66
2023/10/25 07:38:04;;;;;;;1.02;0.85;;;7.70;99.90;;;;;;4992008;28;20064;-66
2023/10/25 07:40:30;;;;;;;3.20;1.30;;;7.80;99.90;;;;;;5007907;28;20048;-66
2023/10/25 07:42:55;;;;;;;2.88;0.73;;;7.90;99.90;;;;;;5020503;28;20048;-66
2023/10/25 07:45:21;;;;;;;1.10;1.00;;;7.90;99.90;;;;;;5021377;28;20102;-66
2023/10/25 07:47:47;;;;;;;1.65;1.05;;;8.00;99.90;;;;;;5012066;28;20045;-67
2023/10/25 07:50:18;;;;;;;11.35;1.25;;;8.00;99.90;;;;;;5013857;28;20250;-66
2023/10/25 07:52:45;;;;;;;2.90;1.15;;;8.10;99.90;;;;;;5005592;28;20037;-67
2023/10/25 07:55:11;;;;;;;1.02;0.70;;;8.10;99.90;;;;;;4997969;28;20045;-66
2023/10/25 07:57:36;;;;;;;1.50;0.88;;;8.20;99.90;;;;;;4990472;28;20044;-66
2023/10/25 08:00:04;;;;;;;0.88;0.60;;;8.20;99.90;;;;;;5013957;28;20038;-67
2023/10/25 08:02:29;;;;;;;1.42;0.75;;;8.20;99.90;;;;;;5001113;28;20156;-66
2023/10/25 08:04:55;;;;;;;1.33;1.02;;;8.30;99.90;;;;;;4998077;28;20129;-66
2023/10/25 08:07:21;;;;;;;1.58;0.90;;;8.30;99.90;;;;;;5015378;28;20061;-67
2023/10/25 08:09:47;;;;;;;1.25;1.08;;;8.40;99.90;;;;;;4996337;28;20041;-66
2023/10/25 08:12:13;;;;;;;0.73;0.57;;;8.40;99.90;;;;;;5000944;28;20048;-66
2023/10/25 08:14:38;;;;;;;2.45;0.60;;;8.40;99.90;;;;;;5018590;28;20437;-67
2023/10/25 08:17:04;;;;;;;4.55;1.15;;;8.50;99.90;;;;;;5012503;28;20042;-66
2023/10/25 08:19:33;;;;;;;3.00;1.00;;;8.60;99.90;;;;;;5020004;28;20382;-66
2023/10/25 08:22:00;;;;;;;4.30;1.38;;;8.60;99.90;;;;;;5004340;28;20051;-67
2023/10/25 08:24:25;;;;;;;1.45;0.38;;;8.60;99.90;;;;;;4987723;28;20104;-67
2023/10/25 08:26:55;;;;;;;0.60;0.60;;;8.70;99.90;;;;;;5015210;28;20045;-66
2023/10/25 08:29:21;;;;;;;1.55;0.75;;;8.60;99.90;;;;;;5021529;28;20080;-66
2023/10/25 08:31:47;;;;;;;1.15;0.43;;;8.70;99.90;;;;;;5021955;28;20055;-67
2023/10/25 08:34:12;;;;;;;6.35;0.88;;;8.70;99.90;;;;;;4997954;28;20072;-67
2023/10/25 08:36:38;;;;;;;1.20;0.88;;;8.70;99.90;;;;;;4990334;28;20046;-67
2023/10/25 08:39:04;;;;;;;1.70;1.08;;;8.80;99.90;;;;;;5020847;28;20363;-65
2023/10/25 08:41:30;;;;;;;1.02;0.60;;;8.80;99.90;;;;;;5000565;28;20052;-65
2023/10/25 08:43:58;;;;;;;3.03;1.20;;;8.90;99.90;;;;;;4999179;28;20127;-65
2023/10/25 08:46:25;;;;;;;1.65;0.52;;;8.90;99.90;;;;;;5001134;28;20069;-65
2023/10/25 08:48:52;;;;;;;1.35;0.60;;;9.00;99.90;;;;;;5024067;28;20041;-66
2023/10/25 08:51:19;;;;;;;3.92;0.95;;;9.10;99.90;;;;;;5001205;28;20060;-67
2023/10/25 08:53:46;;;;;;;2.03;0.82;;;9.10;99.90;;;;;;5025055;28;20513;-66
2023/10/25 08:56:11;;;;;;;3.33;1.05;;;9.20;99.90;;;;;;4993530;28;20050;-66
2023/10/25 08:58:37;;;;;;;1.63;0.85;;;9.20;99.90;;;;;;5016755;28;20095;-66
2023/10/25 09:01:03;;;;;;;4.38;0.90;;;9.30;99.90;;;;;;5020463;28;20041;-65
2023/10/25 09:03:31;;;;;;;1.20;0.70;;;9.50;99.90;;;;;;5020217;28;20134;-66
2023/10/25 09:05:58;;;;;;;2.58;1.45;;;9.60;99.90;;;;;;5011194;28;20053;-66
2023/10/25 09:08:24;;;;;;;1.15;0.80;;;9.70;99.90;;;;;;5004785;28;20038;-66
2023/10/25 09:11:01;;;;;;;0.98;0.60;;;9.90;99.90;;;;;;5022787;28;20034;-65
2023/10/25 09:13:28;;;;;;;2.08;1.02;;;10.20;99.90;;;;;;4995637;28;20485;-66
2023/10/25 09:16:03;;;;;;;3.17;1.10;;;10.40;99.90;;;;;;4994433;28;20145;-66
2023/10/25 09:18:31;;;;;;;1.88;1.23;;;10.70;99.90;;;;;;5018742;28;20033;-66
2023/10/25 09:20:57;;;;;;;5.65;1.85;;;10.90;99.90;;;;;;5023380;28;20116;-66
2023/10/25 09:23:23;;;;;;;2.25;1.10;;;11.30;99.90;;;;;;4996244;28;20046;-66
2023/10/25 09:25:52;;;;;;;3.22;1.27;;;11.60;99.90;;;;;;5015060;28;20034;-65
2023/10/25 09:28:28;;;;;;;1.55;1.08;;;11.90;99.90;;;;;;5020269;28;20037;-65
2023/10/25 09:31:01;;;;;;;3.38;1.00;;;12.20;99.90;;;;;;4986148;28;20038;-66
2023/10/25 09:33:33;;;;;;;1.30;1.08;;;12.40;99.90;;;;;;4981844;28;20574;-66
2023/10/25 09:35:58;;;;;;;1.13;0.98;;;12.50;99.90;;;;;;5013072;28;20495;-66
2023/10/25 09:38:24;;;;;;;1.88;0.90;;;12.50;99.90;;;;;;5017665;28;20132;-66
2023/10/25 09:40:51;;;;;;;1.77;0.88;;;12.60;99.90;;;;;;5001829;28;20075;-65
2023/10/25 09:43:20;;;;;;;1.92;0.90;;;12.70;99.90;;;;;;5010084;28;20054;-65
2023/10/25 09:45:49;;;;;;;1.48;0.60;;;12.80;99.90;;;;;;5018254;28;20041;-66
2023/10/25 09:48:17;;;;;;;1.25;0.70;;;13.00;99.90;;;;;;5018852;28;20100;-66
2023/10/25 09:50:57;;;;;;;2.08;1.02;;;13.30;99.90;;;;;;5012137;28;20041;-66
2023/10/25 09:53:31;;;;;;;1.08;0.80;;;13.70;99.90;;;;;;5014013;28;20047;-66
2023/10/25 09:56:03;;;;;;;0.90;0.65;;;14.00;99.90;;;;;;5022225;28;20089;-65
2023/10/25 09:58:34;;;;;;;1.13;0.75;;;14.00;99.90;;;;;;5019827;28;20120;-66
2023/10/25 10:01:03;;;;;;;2.70;0.90;;;13.80;99.90;;;;;;5025343;28;20073;-65
2023/10/25 10:03:52;;;;;;;1.63;0.88;;;13.50;99.90;;;;;;5001202;28;20042;-65
2023/10/25 10:06:31;;;;;;;1.08;0.65;;;13.30;99.90;;;;;;5021667;28;20150;-66
2023/10/25 10:09:22;;;;;;;0.70;0.63;;;13.20;99.90;;;;;;5023785;28;20045;-65
2023/10/25 10:11:53;;;;;;;2.03;0.88;;;13.40;99.90;;;;;;4998440;28;20046;-66
2023/10/25 10:14:27;;;;;;;1.85;0.88;;;13.80;99.90;;;;;;4984447;28;20062;-66
2023/10/25 10:17:03;;;;;;;1.48;0.95;;;14.10;99.90;;;;;;5001067;28;20531;-65
2023/10/25 10:19:36;;;;;;;1.17;0.88;;;14.10;99.90;;;;;;5018982;28;20042;-65
2023/10/25 10:22:13;;;;;;;5.13;1.30;;;13.90;99.90;;;;;;5024293;28;20072;-66
2023/10/25 10:24:58;;;;;;;1.55;0.65;;;13.70;99.90;;;;;;4999422;28;20042;-65
2023/10/25 10:27:54;;;;;;;1.35;0.68;;;13.40;99.90;;;;;;5019019;28;20048;-65
2023/10/25 10:30:39;;;;;;;2.67;0.70;;;13.10;99.90;;;;;;5013326;28;20046;-65
2023/10/25 10:33:09;;;;;;;0.68;0.43;;;12.90;99.90;;;;;;5013404;28;20041;-65
2023/10/25 10:35:35;;;;;;;2.47;0.82;;;12.70;99.90;;;;;;5019182;28;20113;-64
2023/10/25 10:38:02;;;;;;;1.65;0.60;;;12.60;99.90;;;;;;5017459;28;20490;-66
2023/10/25 10:40:28;;;;;;;1.00;0.63;;;12.40;99.90;;;;;;4992460;28;20049;-66
2023/10/25 10:42:54;;;;;;;0.95;0.50;;;12.30;99.90;;;;;;5003943;28;20034;-65
2023/10/25 10:45:21;;;;;;;3.15;0.70;;;12.20;99.90;;;;;;4998293;28;20038;-67
2023/10/25 10:48:01;;;;;;;0.75;0.32;;;12.20;99.90;;;;;;5015578;28;20103;-65
2023/10/25 10:50:27;;;;;;;1.38;0.52;;;12.20;99.90;;;;;;4993380;28;20121;-66
2023/10/25 10:52:53;;;;;;;2.47;0.50;;;12.10;99.90;;;;;;5015474;28;20117;-66
2023/10/25 10:55:21;;;;;;;1.20;0.70;;;12.00;99.90;;;;;;5019700;28;20041;-66
2023/10/25 10:57:47;;;;;;;3.08;0.77;;;11.90;99.90;;;;;;5004424;28;20096;-67
2023/10/25 11:00:18;;;;;;;1.55;0.73;;;11.80;99.90;;;;;;4994288;28;20050;-67
2023/10/25 11:02:51;;;;;;;0.90;0.50;;;11.70;99.90;;;;;;5021042;28;20080;-67
2023/10/25 11:05:22;;;;;;;1.10;0.60;;;11.70;99.90;;;;;;4994085;28;20490;-66
2023/10/25 11:07:49;;;;;;;3.42;0.40;;;11.60;99.90;;;;;;5022315;28;20063;-66
2023/10/25 11:10:15;;;;;;;1.80;0.57;;;11.60;99.90;;;;;;5010068;28;20034;-66
2023/10/25 11:12:42;;;;;;;1.20;0.50;;;11.50;99.90;;;;;;5020246;28;20687;-66
2023/10/25 11:15:09;;;;;;;3.42;0.50;;;11.50;99.90;;;;;;5024999;28;20045;-66
2023/10/25 11:17:36;;;;;;;5.85;1.02;;;11.40;99.90;;;;;;5020195;28;20072;-65
2023/10/25 11:20:02;;;;;;;0.60;0.45;;;11.40;99.90;;;;;;5012549;28;20140;-65
2023/10/25 11:22:30;;;;;;;1.17;0.60;;;11.30;99.90;;;;;;5021942;28;20033;-66
2023/10/25 11:24:57;;;;;;;0.70;0.50;;;11.30;99.90;;;;;;5019260;28;20516;-65
2023/10/25 11:27:33;;;;;;;4.72;1.00;;;11.30;99.90;;;;;;5015643;28;20498;-66
2023/10/25 11:30:00;;;;;;;1.05;0.65;;;11.20;99.90;;;;;;5008082;28;20124;-65
2023/10/25 11:32:28;;;;;;;1.48;0.80;;;11.20;99.90;;;;;;5020366;28;20041;-65
2023/10/25 11:34:56;;;;;;;1.20;0.70;;;11.20;99.90;;;;;;5021306;28;20136;-66
2023/10/25 11:37:42;;;;;;;1.20;0.65;;;11.20;99.90;;;;;;5012455;28;20458;-66
2023/10/25 11:40:09;;;;;;;1.02;0.65;;;11.20;99.90;;;;;;5015199;28;20266;-66
2023/10/25 11:42:35;;;;;;;1.25;0.75;;;11.10;99.90;;;;;;5020393;28;20052;-66
2023/10/25 11:45:05;;;;;;;1.10;0.57;;;11.10;99.90;;;;;;5017700;28;20037;-66
2023/10/25 11:47:37;;;;;;;0.75;0.50;;;11.10;99.90;;;;;;5013648;28;20244;-65
2023/10/25 11:50:03;;;;;;;3.40;0.77;;;11.10;99.90;;;;;;5006310;28;20080;-65
2023/10/25 11:52:30;;;;;;;1.33;0.70;;;11.00;99.90;;;;;;5026023;28;20116;-66
2023/10/25 11:54:58;;;;;;;3.58;1.30;;;11.10;99.90;;;;;;4983513;28;20053;-66
2023/10/25 11:57:33;;;;;;;2.33;0.60;;;11.00;99.90;;;;;;4993202;28;20045;-66
2023/10/25 11:59:59;;;;;;;1.13;0.50;;;11.00;99.90;;;;;;4995120;28;20042;-66
2023/10/25 12:02:26;;;;;;;1.52;0.98;;;11.00;99.90;;;;;;4989023;28;20401;-66
2023/10/25 12:04:53;;;;;;;0.75;0.50;;;11.00;99.90;;;;;;5000021;28;20114;-66
2023/10/25 12:07:23;;;;;;;1.20;0.70;;;11.00;99.90;;;;;;5012448;28;20074;-65
2023/10/25 12:09:53;;;;;;;0.98;0.50;;;11.00;99.90;;;;;;5020011;28;20046;-65
2023/10/25 12:12:20;;;;;;;0.93;0.57;;;11.00;99.90;;;;;;5020370;28;20118;-65
2023/10/25 12:14:46;;;;;;;1.42;0.73;;;10.90;99.90;;;;;;5019426;28;20049;-64
2023/10/25 12:17:12;;;;;;;3.50;0.80;;;10.90;99.90;;;;;;5015898;28;20095;-65
2023/10/25 12:19:39;;;;;;;0.57;0.45;;;10.90;99.90;;;;;;5018826;28;20466;-65
2023/10/25 12:22:12;;;;;;;1.15;0.80;;;10.90;99.90;;;;;;5004423;28;20596;-65
2023/10/25 12:24:40;;;;;;;0.88;0.60;;;10.80;99.90;;;;;;5010503;28;20037;-65
2023/10/25 12:27:09;;;;;;;0.77;0.60;;;10.80;99.90;;;;;;5020931;28;20537;-65
2023/10/25 12:29:38;;;;;;;1.65;0.40;;;10.70;99.90;;;;;;5005442;28;20075;-65
2023/10/25 12:32:05;;;;;;;0.80;0.30;;;10.70;99.90;;;;;;5017188;28;20521;-65
2023/10/25 12:34:31;;;;;;;0.80;0.55;;;10.70;99.90;;;;;;5013706;28;20044;-64
2023/10/25 12:36:57;;;;;;;1.50;0.65;;;10.70;99.90;;;;;;5020039;28;20120;-65
2023/10/25 12:39:23;;;;;;;0.63;0.43;;;10.70;99.90;;;;;;5024176;28;20050;-65
2023/10/25 12:41:49;;;;;;;1.95;0.85;;;10.70;99.90;;;;;;5014924;28;20042;-64
2023/10/25 12:44:15;;;;;;;1.38;0.82;;;10.70;99.90;;;;;;5015309;28;20085;-65
2023/10/25 12:46:43;;;;;;;1.35;0.50;;;10.60;99.90;;;;;;5019864;28;20074;-64
2023/10/25 12:49:11;;;;;;;1.73;0.90;;;10.60;99.90;;;;;;5019096;28;20126;-65
2023/10/25 12:51:37;;;;;;;1.73;0.70;;;10.60;99.90;;;;;;5012934;28;20350;-65
2023/10/25 12:54:03;;;;;;;1.17;0.80;;;10.60;99.90;;;;;;5003021;28;20069;-65